Airport View

Enter AWOS ICAO identifier for current METAR.

ex. KFNL

KTAN 212252Z AUTO 14004KT 10SM CLR 22/14 A3014 RMK AO2 SLP208 T02170139

21 Sep 2019 23:24

Frequency: 132.675

Phone: 508-824-5005

Other Area AWOS: KEWB - KPYM - KOWD - KGHG

TAF AMD KPVD 212002Z 2120/2218 16008KT P6SM SKC FM220200 20004KT P6SM SKC